Time;durP1;ratioP1;P1;durP2;ratioP2;P2;SDS_P1;SDS_P2;PMS_P1;PMS_P2;Temp;Humidity;BMP_temperature;BMP_pressure;BME280_temperature;BME280_humidity;BME280_pressure;Samples;Min_cycle;Max_cycle;Signal;HPM_P1;HPM_P2
2022/04/01 00:01:28;;;;;;;8.65;5.88;;;;;;;;;;5046413;28;20423;-45
2022/04/01 00:03:55;;;;;;;8.57;5.78;;;;;;;;;;5064235;28;20419;-50
2022/04/01 00:06:21;;;;;;;8.15;5.63;;;;;;;;;;5044007;28;20526;-50
2022/04/01 00:08:47;;;;;;;8.10;5.55;;;;;;;;;;5044236;28;20033;-47
2022/04/01 00:11:13;;;;;;;8.57;5.60;;;;;;;;;;5033644;28;20356;-48
2022/04/01 00:13:39;;;;;;;8.10;5.40;;;;;;;;;;5028204;28;20070;-47
2022/04/01 00:16:05;;;;;;;7.68;5.38;;;;;;;;;;5027943;28;20032;-49
2022/04/01 00:18:33;;;;;;;8.05;5.25;;;;;;;;;;5027596;28;20034;-50
2022/04/01 00:21:00;;;;;;;8.02;5.25;;;;;;;;;;5035021;28;20066;-46
2022/04/01 00:23:26;;;;;;;6.78;4.63;;;;;;;;;;5046355;28;20033;-45
2022/04/01 00:25:53;;;;;;;7.95;5.03;;;;;;;;;;5047496;28;20051;-46
2022/04/01 00:28:19;;;;;;;8.73;5.45;;;;;;;;;;5047563;28;20143;-46
2022/04/01 00:30:45;;;;;;;9.60;5.78;;;;;;;;;;5045651;28;20021;-47
2022/04/01 00:33:14;;;;;;;8.40;5.88;;;;;;;;;;5037246;28;20404;-46
2022/04/01 00:35:41;;;;;;;8.77;5.88;;;;;;;;;;5027041;28;20021;-49
2022/04/01 00:38:08;;;;;;;8.45;5.65;;;;;;;;;;5038117;28;20120;-46
2022/04/01 00:40:36;;;;;;;8.85;5.82;;;;;;;;;;5046779;28;20033;-49
2022/04/01 00:43:02;;;;;;;7.07;5.15;;;;;;;;;;5045200;28;20079;-50
2022/04/01 00:45:28;;;;;;;8.93;5.38;;;;;;;;;;5047300;28;20021;-45
2022/04/01 00:48:01;;;;;;;8.15;5.50;;;;;;;;;;5047569;28;20029;-48
2022/04/01 00:50:27;;;;;;;8.07;5.57;;;;;;;;;;5047423;28;20044;-46
2022/04/01 00:52:55;;;;;;;7.97;5.63;;;;;;;;;;5043258;28;20099;-50
2022/04/01 00:55:22;;;;;;;8.95;5.80;;;;;;;;;;5046952;28;20029;-46
2022/04/01 00:57:48;;;;;;;9.30;6.32;;;;;;;;;;5046638;28;20044;-49
2022/04/01 01:00:15;;;;;;;8.18;5.78;;;;;;;;;;5047002;28;20488;-48
2022/04/01 01:02:41;;;;;;;10.48;6.07;;;;;;;;;;5042285;28;20079;-49
2022/04/01 01:05:08;;;;;;;9.52;6.18;;;;;;;;;;5046844;28;20029;-47
2022/04/01 01:07:36;;;;;;;7.68;5.82;;;;;;;;;;5046789;28;20025;-49
2022/04/01 01:10:03;;;;;;;9.90;6.32;;;;;;;;;;5046720;28;20265;-47
2022/04/01 01:12:31;;;;;;;10.20;6.80;;;;;;;;;;5046082;28;20080;-48
2022/04/01 01:15:07;;;;;;;8.88;6.10;;;;;;;;;;5044300;28;20033;-49
2022/04/01 01:17:33;;;;;;;9.25;6.43;;;;;;;;;;5046351;28;20032;-49
2022/04/01 01:20:00;;;;;;;10.00;6.50;;;;;;;;;;5045014;28;20029;-48
2022/04/01 01:22:26;;;;;;;11.55;6.93;;;;;;;;;;5026797;28;20037;-47
2022/04/01 01:24:52;;;;;;;9.32;6.25;;;;;;;;;;5030076;28;20017;-49
2022/04/01 01:27:18;;;;;;;13.40;8.35;;;;;;;;;;5026698;28;20724;-47
2022/04/01 01:29:46;;;;;;;10.23;7.07;;;;;;;;;;5025754;28;20091;-48
2022/04/01 01:32:16;;;;;;;12.32;7.50;;;;;;;;;;5026555;28;20108;-50
2022/04/01 01:34:43;;;;;;;11.65;7.47;;;;;;;;;;5034650;28;20112;-48
2022/04/01 01:37:10;;;;;;;12.43;7.57;;;;;;;;;;5033145;28;20079;-48
2022/04/01 01:39:36;;;;;;;10.88;7.22;;;;;;;;;;5026398;28;20405;-48
2022/04/01 01:42:02;;;;;;;11.35;7.47;;;;;;;;;;5026659;28;20034;-49
2022/04/01 01:44:29;;;;;;;11.82;7.68;;;;;;;;;;5025941;28;20043;-48
2022/04/01 01:46:57;;;;;;;9.63;6.43;;;;;;;;;;5033072;28;20025;-47
2022/04/01 01:49:24;;;;;;;8.07;6.20;;;;;;;;;;5044957;28;20029;-48
2022/04/01 01:54:43;;;;;;;7.78;5.30;;;;;;;;;;5034141;28;20112;-50
2022/04/01 01:57:09;;;;;;;6.07;4.45;;;;;;;;;;5026221;28;20550;-47
2022/04/01 01:59:36;;;;;;;6.22;4.35;;;;;;;;;;5024396;28;20029;-47
2022/04/01 02:02:05;;;;;;;4.85;4.15;;;;;;;;;;5025883;28;20036;-46
2022/04/01 02:04:31;;;;;;;5.00;3.80;;;;;;;;;;5035235;28;20023;-47
2022/04/01 02:06:57;;;;;;;3.95;3.35;;;;;;;;;;5045992;28;20039;-47
2022/04/01 02:09:24;;;;;;;3.95;3.10;;;;;;;;;;5046559;28;20094;-48
2022/04/01 02:11:51;;;;;;;5.45;3.80;;;;;;;;;;5046989;28;20033;-47
2022/04/01 02:14:18;;;;;;;6.28;4.22;;;;;;;;;;5037988;28;20052;-47
2022/04/01 02:16:44;;;;;;;7.57;5.15;;;;;;;;;;5038508;28;20032;-48
2022/04/01 02:19:11;;;;;;;7.13;5.03;;;;;;;;;;5047091;28;20060;-48
2022/04/01 02:21:37;;;;;;;5.20;4.18;;;;;;;;;;5046716;28;20029;-49
2022/04/01 02:24:10;;;;;;;7.00;4.53;;;;;;;;;;5045032;28;20056;-49
2022/04/01 02:26:37;;;;;;;5.35;4.43;;;;;;;;;;5046808;28;20021;-49
2022/04/01 02:29:05;;;;;;;4.90;3.80;;;;;;;;;;5047061;28;20048;-47
2022/04/01 02:31:32;;;;;;;5.05;3.97;;;;;;;;;;5028974;28;20044;-47
2022/04/01 02:33:59;;;;;;;4.55;3.97;;;;;;;;;;5026315;28;20029;-51
2022/04/01 02:36:25;;;;;;;4.55;3.90;;;;;;;;;;5026867;28;20079;-47
2022/04/01 02:38:53;;;;;;;4.50;3.53;;;;;;;;;;5026915;28;20080;-46
2022/04/01 02:41:20;;;;;;;5.32;4.20;;;;;;;;;;5026178;28;20108;-45
2022/04/01 02:43:46;;;;;;;5.18;3.95;;;;;;;;;;5026543;28;20028;-46
2022/04/01 02:46:12;;;;;;;4.75;3.60;;;;;;;;;;5026240;28;20524;-49
2022/04/01 02:48:39;;;;;;;4.97;3.50;;;;;;;;;;5026586;28;20104;-47
2022/04/01 02:51:05;;;;;;;6.45;3.88;;;;;;;;;;5027885;28;20460;-47
2022/04/01 02:53:31;;;;;;;4.18;3.42;;;;;;;;;;5025914;28;20029;-47
2022/04/01 02:55:57;;;;;;;5.07;4.20;;;;;;;;;;5026553;28;20025;-47
2022/04/01 02:58:24;;;;;;;6.90;4.40;;;;;;;;;;5026874;28;20083;-47
2022/04/01 03:00:50;;;;;;;4.05;3.65;;;;;;;;;;5042662;28;20540;-49
2022/04/01 03:03:16;;;;;;;5.85;4.03;;;;;;;;;;5044960;28;20029;-46
2022/04/01 03:05:43;;;;;;;4.10;3.40;;;;;;;;;;5045860;28;20029;-46
2022/04/01 03:08:09;;;;;;;4.00;3.60;;;;;;;;;;5046350;28;20017;-47
2022/04/01 03:10:36;;;;;;;4.20;3.67;;;;;;;;;;5044161;28;20052;-48
2022/04/01 03:13:02;;;;;;;4.88;3.88;;;;;;;;;;5044042;28;20404;-47
2022/04/01 03:15:29;;;;;;;4.43;3.58;;;;;;;;;;5042389;28;20040;-46
2022/04/01 03:17:58;;;;;;;5.05;4.32;;;;;;;;;;5046709;28;20032;-46
2022/04/01 03:20:25;;;;;;;4.25;3.67;;;;;;;;;;5046749;28;20057;-49
2022/04/01 03:22:52;;;;;;;5.25;3.75;;;;;;;;;;5044076;28;20082;-47
2022/04/01 03:25:19;;;;;;;4.57;3.75;;;;;;;;;;5044103;28;20048;-46
2022/04/01 03:27:46;;;;;;;4.50;3.78;;;;;;;;;;5045887;28;20732;-46
2022/04/01 03:30:13;;;;;;;5.20;4.65;;;;;;;;;;5045858;28;20489;-49
2022/04/01 03:32:40;;;;;;;5.70;3.97;;;;;;;;;;5045763;28;20052;-49
2022/04/01 03:35:16;;;;;;;4.90;4.03;;;;;;;;;;5027892;28;20033;-46
2022/04/01 03:37:43;;;;;;;5.00;3.92;;;;;;;;;;5026102;28;20030;-48
2022/04/01 03:40:10;;;;;;;6.82;4.20;;;;;;;;;;5026174;28;20037;-49
2022/04/01 03:42:36;;;;;;;4.75;3.80;;;;;;;;;;5025855;28;20037;-46
2022/04/01 03:45:04;;;;;;;4.40;3.45;;;;;;;;;;5024967;28;20461;-48
2022/04/01 03:47:35;;;;;;;5.25;3.72;;;;;;;;;;5029684;28;20056;-48
2022/04/01 03:50:02;;;;;;;4.00;3.03;;;;;;;;;;5030219;28;20025;-47
2022/04/01 03:52:31;;;;;;;6.57;3.53;;;;;;;;;;5029610;28;20036;-47
2022/04/01 03:55:01;;;;;;;6.90;3.90;;;;;;;;;;5031600;28;20391;-46
2022/04/01 03:57:33;;;;;;;7.25;3.75;;;;;;;;;;5034101;28;20538;-49
2022/04/01 04:00:00;;;;;;;7.90;4.32;;;;;;;;;;5029922;28;20079;-50
2022/04/01 04:02:26;;;;;;;6.57;3.90;;;;;;;;;;5028792;28;20029;-47
2022/04/01 04:04:55;;;;;;;5.05;3.33;;;;;;;;;;5032467;28;20017;-46
2022/04/01 04:07:24;;;;;;;4.07;3.33;;;;;;;;;;5049757;28;20029;-47
2022/04/01 04:09:50;;;;;;;4.25;3.08;;;;;;;;;;5049412;28;20041;-47
2022/04/01 04:12:17;;;;;;;2.78;2.53;;;;;;;;;;5049510;28;20037;-46
2022/04/01 04:14:43;;;;;;;3.28;2.80;;;;;;;;;;5045490;28;20057;-46
2022/04/01 04:17:14;;;;;;;3.72;3.30;;;;;;;;;;5050286;28;20025;-48
2022/04/01 04:20:18;;;;;;;3.25;2.75;;;;;;;;;;5047954;28;20037;-46
2022/04/01 04:22:47;;;;;;;3.50;2.70;;;;;;;;;;5037282;28;20049;-48
2022/04/01 04:25:15;;;;;;;2.65;2.40;;;;;;;;;;5047288;28;20655;-46
2022/04/01 04:28:01;;;;;;;3.17;2.60;;;;;;;;;;5049673;28;20491;-46
2022/04/01 04:30:35;;;;;;;2.80;2.33;;;;;;;;;;5047394;28;20029;-45
2022/04/01 04:33:05;;;;;;;3.08;2.65;;;;;;;;;;5049314;28;20583;-47
2022/04/01 04:35:32;;;;;;;2.33;2.10;;;;;;;;;;5042121;28;20029;-47
2022/04/01 04:37:59;;;;;;;2.13;1.92;;;;;;;;;;5034825;28;20029;-48
2022/04/01 04:40:26;;;;;;;2.22;2.03;;;;;;;;;;5029205;28;20105;-47
2022/04/01 04:42:53;;;;;;;2.53;2.13;;;;;;;;;;5029002;28;20030;-49
2022/04/01 04:45:21;;;;;;;2.47;2.10;;;;;;;;;;5028625;28;20025;-47
2022/04/01 04:47:48;;;;;;;2.20;1.95;;;;;;;;;;5028555;28;20800;-49
2022/04/01 04:50:18;;;;;;;1.98;1.75;;;;;;;;;;5028818;28;20032;-47
2022/04/01 04:52:55;;;;;;;2.35;1.80;;;;;;;;;;5028618;28;20120;-48
2022/04/01 04:55:22;;;;;;;2.30;2.10;;;;;;;;;;5028629;28;20515;-48
2022/04/01 04:57:49;;;;;;;2.17;1.92;;;;;;;;;;5027245;28;20038;-49
2022/04/01 05:00:20;;;;;;;1.80;1.70;;;;;;;;;;5028549;28;20066;-46
2022/04/01 05:02:58;;;;;;;2.10;1.73;;;;;;;;;;5028267;28;20111;-49
2022/04/01 05:05:32;;;;;;;1.70;1.60;;;;;;;;;;5028525;28;20428;-48
2022/04/01 05:08:17;;;;;;;1.80;1.65;;;;;;;;;;5033033;28;20045;-48
2022/04/01 05:10:53;;;;;;;1.67;1.58;;;;;;;;;;5040520;28;20087;-46
2022/04/01 05:13:28;;;;;;;1.30;1.20;;;;;;;;;;5048309;28;20029;-45
2022/04/01 05:15:57;;;;;;;1.17;1.13;;;;;;;;;;5043371;28;20025;-46
2022/04/01 05:18:33;;;;;;;1.40;1.00;;;;;;;;;;5068216;28;20088;-46
2022/04/01 05:21:02;;;;;;;1.20;1.10;;;;;;;;;;5068417;28;20433;-45
2022/04/01 05:23:47;;;;;;;1.63;1.52;;;;;;;;;;5067701;28;20024;-44
2022/04/01 05:26:14;;;;;;;1.30;1.20;;;;;;;;;;5028622;28;20022;-47
2022/04/01 05:28:52;;;;;;;1.40;1.30;;;;;;;;;;5043726;28;20029;-45
2022/04/01 05:31:20;;;;;;;1.27;1.15;;;;;;;;;;5048012;28;20029;-46
2022/04/01 05:33:46;;;;;;;1.30;1.20;;;;;;;;;;5040465;28;20033;-49
2022/04/01 05:36:13;;;;;;;1.45;1.35;;;;;;;;;;5062902;28;20112;-45
2022/04/01 05:38:40;;;;;;;1.52;0.85;;;;;;;;;;5054608;28;20116;-46
2022/04/01 05:41:06;;;;;;;1.30;1.20;;;;;;;;;;5028033;28;20132;-44
2022/04/01 05:43:33;;;;;;;1.08;0.98;;;;;;;;;;5027776;28;20048;-46
2022/04/01 05:46:00;;;;;;;1.30;0.90;;;;;;;;;;5027954;28;20032;-45
2022/04/01 05:48:27;;;;;;;0.82;0.82;;;;;;;;;;5027373;28;20116;-46
2022/04/01 05:50:54;;;;;;;0.80;0.80;;;;;;;;;;5029088;28;20448;-47
2022/04/01 05:53:21;;;;;;;0.90;0.70;;;;;;;;;;5028965;28;20050;-45
2022/04/01 05:55:48;;;;;;;1.42;1.00;;;;;;;;;;5039795;28;20032;-45
2022/04/01 05:58:15;;;;;;;0.90;0.90;;;;;;;;;;5029085;28;20037;-44
2022/04/01 06:01:04;;;;;;;1.20;0.90;;;;;;;;;;5026454;28;20701;-46
2022/04/01 06:03:40;;;;;;;1.27;1.17;;;;;;;;;;5038415;28;20033;-46
2022/04/01 06:06:22;;;;;;;1.25;1.08;;;;;;;;;;5029291;28;20140;-44
2022/04/01 06:09:03;;;;;;;1.10;1.00;;;;;;;;;;5029509;28;20377;-48
2022/04/01 06:11:48;;;;;;;0.90;0.80;;;;;;;;;;5037984;28;20033;-48
2022/04/01 06:14:26;;;;;;;1.33;1.23;;;;;;;;;;5026704;28;20576;-46
2022/04/01 06:17:05;;;;;;;1.20;1.10;;;;;;;;;;5027413;28;20029;-45
2022/04/01 06:19:35;;;;;;;1.90;1.70;;;;;;;;;;5031889;28;20168;-45
2022/04/01 06:22:04;;;;;;;1.85;1.67;;;;;;;;;;5044956;28;20384;-46
2022/04/01 06:24:44;;;;;;;1.90;1.70;;;;;;;;;;5029793;28;20021;-45
2022/04/01 06:27:17;;;;;;;1.73;1.58;;;;;;;;;;5027907;28;20434;-46
2022/04/01 06:29:46;;;;;;;2.38;1.73;;;;;;;;;;5026978;28;20485;-47
2022/04/01 06:32:15;;;;;;;5.03;2.55;;;;;;;;;;5027642;28;20040;-46
2022/04/01 06:35:04;;;;;;;4.40;2.72;;;;;;;;;;5036407;28;20040;-47
2022/04/01 06:37:33;;;;;;;3.08;2.75;;;;;;;;;;5027471;28;20033;-46
2022/04/01 06:40:05;;;;;;;3.13;2.22;;;;;;;;;;5028169;28;20028;-46
2022/04/01 06:42:32;;;;;;;2.58;2.30;;;;;;;;;;5035050;28;20053;-47
2022/04/01 06:44:59;;;;;;;3.65;2.72;;;;;;;;;;5043807;28;20397;-48
2022/04/01 06:47:25;;;;;;;2.40;2.20;;;;;;;;;;5028561;28;20505;-44
2022/04/01 06:49:51;;;;;;;2.90;2.42;;;;;;;;;;5029605;28;20022;-46
2022/04/01 06:52:19;;;;;;;5.85;3.60;;;;;;;;;;5046914;28;20585;-47
2022/04/01 06:54:46;;;;;;;7.45;3.97;;;;;;;;;;5045658;28;20029;-45
2022/04/01 06:57:14;;;;;;;4.85;3.55;;;;;;;;;;5044948;28;20047;-48
2022/04/01 06:59:40;;;;;;;4.63;3.72;;;;;;;;;;5045489;28;20043;-46
2022/04/01 07:02:07;;;;;;;7.88;4.40;;;;;;;;;;5034854;28;20505;-45
2022/04/01 07:04:33;;;;;;;6.65;4.43;;;;;;;;;;5041904;28;20130;-49
2022/04/01 07:06:59;;;;;;;4.50;3.80;;;;;;;;;;5026224;28;20032;-45
2022/04/01 07:09:26;;;;;;;6.18;3.80;;;;;;;;;;5031758;28;20116;-46
2022/04/01 07:11:53;;;;;;;4.18;3.47;;;;;;;;;;5032691;28;20480;-48
2022/04/01 07:14:20;;;;;;;5.13;4.35;;;;;;;;;;5026457;28;20017;-48
2022/04/01 07:16:46;;;;;;;4.97;3.63;;;;;;;;;;5025288;28;20033;-45
2022/04/01 07:19:12;;;;;;;4.22;3.30;;;;;;;;;;5026373;28;20026;-48
2022/04/01 07:21:39;;;;;;;4.95;3.30;;;;;;;;;;5029946;28;20033;-46
2022/04/01 07:24:06;;;;;;;3.67;3.17;;;;;;;;;;5025054;28;20401;-47
2022/04/01 07:26:32;;;;;;;5.88;3.50;;;;;;;;;;5024640;28;20032;-46
2022/04/01 07:28:58;;;;;;;4.50;3.15;;;;;;;;;;5024522;28;20029;-47
2022/04/01 07:34:09;;;;;;;3.40;2.67;;;;;;;;;;5024771;28;20103;-48
2022/04/01 07:36:36;;;;;;;5.75;3.15;;;;;;;;;;5023967;28;20583;-47
2022/04/01 07:39:03;;;;;;;3.90;2.83;;;;;;;;;;5024572;28;20034;-45
2022/04/01 07:41:34;;;;;;;3.83;2.97;;;;;;;;;;5024455;28;20025;-45
2022/04/01 07:44:01;;;;;;;2.90;2.00;;;;;;;;;;5024279;28;20582;-47
2022/04/01 07:46:27;;;;;;;2.22;1.92;;;;;;;;;;5024199;28;20112;-45
2022/04/01 07:48:54;;;;;;;3.53;2.05;;;;;;;;;;5025059;28;20076;-45
2022/04/01 07:51:20;;;;;;;2.35;2.10;;;;;;;;;;5025143;28;20033;-45
2022/04/01 07:53:47;;;;;;;4.68;2.58;;;;;;;;;;5032603;28;20555;-46
2022/04/01 07:56:13;;;;;;;4.07;2.20;;;;;;;;;;5043661;28;20052;-48
2022/04/01 07:58:39;;;;;;;3.05;2.17;;;;;;;;;;5031941;28;20029;-46
2022/04/01 08:01:05;;;;;;;2.75;1.95;;;;;;;;;;5024399;28;20041;-46
2022/04/01 08:03:31;;;;;;;1.77;1.60;;;;;;;;;;5023849;28;20511;-48
2022/04/01 08:05:59;;;;;;;2.85;2.13;;;;;;;;;;5024512;28;20034;-45
2022/04/01 08:08:25;;;;;;;4.30;2.80;;;;;;;;;;5024278;28;20412;-44
2022/04/01 08:10:52;;;;;;;3.97;2.30;;;;;;;;;;5024887;28;20048;-46
2022/04/01 08:13:18;;;;;;;3.42;2.50;;;;;;;;;;5024246;28;20063;-46
2022/04/01 08:15:45;;;;;;;3.25;2.25;;;;;;;;;;5024043;28;20053;-45
2022/04/01 08:18:12;;;;;;;3.58;2.30;;;;;;;;;;5025316;28;20033;-47
2022/04/01 08:20:38;;;;;;;4.35;2.50;;;;;;;;;;5025054;28;20504;-44
2022/04/01 08:23:05;;;;;;;3.53;2.35;;;;;;;;;;5034847;28;20118;-46
2022/04/01 08:25:31;;;;;;;3.90;2.38;;;;;;;;;;5031164;28;20021;-46
2022/04/01 08:27:57;;;;;;;3.30;2.40;;;;;;;;;;5045376;28;20021;-49
2022/04/01 08:30:23;;;;;;;3.45;3.08;;;;;;;;;;5028045;28;20033;-47
2022/04/01 08:32:50;;;;;;;4.72;3.15;;;;;;;;;;5026778;28;20561;-47
2022/04/01 08:35:18;;;;;;;3.30;2.40;;;;;;;;;;5029374;28;20098;-48
2022/04/01 08:37:44;;;;;;;4.43;3.15;;;;;;;;;;5028805;28;20116;-48
2022/04/01 08:40:10;;;;;;;10.82;6.15;;;;;;;;;;5031924;28;20041;-46
2022/04/01 08:42:37;;;;;;;12.18;6.90;;;;;;;;;;5027009;28;20582;-46
2022/04/01 08:45:06;;;;;;;6.75;4.22;;;;;;;;;;5027468;28;20037;-45
2022/04/01 08:47:32;;;;;;;5.85;3.50;;;;;;;;;;5027029;28;20030;-44
2022/04/01 08:49:59;;;;;;;4.65;2.85;;;;;;;;;;5027396;28;20187;-44
2022/04/01 08:52:25;;;;;;;4.82;3.00;;;;;;;;;;5027532;28;20036;-45
2022/04/01 08:54:51;;;;;;;4.72;3.00;;;;;;;;;;5042777;28;20048;-45
2022/04/01 08:57:18;;;;;;;5.70;3.28;;;;;;;;;;5039301;28;20180;-45
2022/04/01 08:59:44;;;;;;;6.07;3.80;;;;;;;;;;5034164;28;20033;-45
2022/04/01 09:02:11;;;;;;;4.53;3.03;;;;;;;;;;5041060;28;20021;-44
2022/04/01 09:04:38;;;;;;;3.67;2.50;;;;;;;;;;5033624;28;20033;-47
2022/04/01 09:07:14;;;;;;;3.65;2.30;;;;;;;;;;5033651;28;20025;-47
2022/04/01 09:09:41;;;;;;;3.58;2.10;;;;;;;;;;5037662;28;20128;-46
2022/04/01 09:12:11;;;;;;;3.15;2.40;;;;;;;;;;5037053;28;20033;-46
2022/04/01 09:14:38;;;;;;;2.97;2.42;;;;;;;;;;5029242;28;20402;-46
2022/04/01 09:17:05;;;;;;;2.53;2.13;;;;;;;;;;5036948;28;20552;-45
2022/04/01 09:19:33;;;;;;;3.13;1.77;;;;;;;;;;5048034;28;20103;-46
2022/04/01 09:22:15;;;;;;;3.88;1.85;;;;;;;;;;5035186;28;20033;-47
2022/04/01 09:25:02;;;;;;;2.42;1.90;;;;;;;;;;5038707;28;20064;-46
2022/04/01 09:27:38;;;;;;;1.98;1.60;;;;;;;;;;5027908;28;20017;-45
2022/04/01 09:30:05;;;;;;;2.72;1.50;;;;;;;;;;5045170;28;20492;-47
2022/04/01 09:32:38;;;;;;;3.20;2.17;;;;;;;;;;5050970;28;20060;-45
2022/04/01 09:35:04;;;;;;;6.05;1.75;;;;;;;;;;5067763;28;20043;-46
2022/04/01 09:37:41;;;;;;;2.28;1.48;;;;;;;;;;5058158;28;20036;-46
2022/04/01 09:40:08;;;;;;;2.50;1.70;;;;;;;;;;5047395;28;20029;-45
2022/04/01 09:42:34;;;;;;;2.35;1.23;;;;;;;;;;5035089;28;20037;-46
2022/04/01 09:45:02;;;;;;;2.08;1.33;;;;;;;;;;5034972;28;20103;-45
2022/04/01 09:47:34;;;;;;;1.10;1.00;;;;;;;;;;5045481;28;20028;-46
2022/04/01 09:50:00;;;;;;;1.40;0.80;;;;;;;;;;5050850;28;20108;-49
2022/04/01 09:52:26;;;;;;;2.67;1.00;;;;;;;;;;5036887;28;20088;-45
2022/04/01 09:54:54;;;;;;;2.15;1.02;;;;;;;;;;5028130;28;20029;-49
2022/04/01 09:57:24;;;;;;;2.42;1.15;;;;;;;;;;5047669;28;20031;-48
2022/04/01 09:59:51;;;;;;;2.47;1.23;;;;;;;;;;5032631;28;20366;-47
2022/04/01 10:02:18;;;;;;;3.38;2.13;;;;;;;;;;5046259;28;20032;-46
2022/04/01 10:04:45;;;;;;;4.30;2.20;;;;;;;;;;5043764;28;20029;-45
2022/04/01 10:07:12;;;;;;;3.47;1.83;;;;;;;;;;5040386;28;20025;-45
2022/04/01 10:09:39;;;;;;;4.32;2.10;;;;;;;;;;5032862;28;20092;-49
2022/04/01 10:12:10;;;;;;;3.35;1.63;;;;;;;;;;5046267;28;20454;-45
2022/04/01 10:14:39;;;;;;;4.97;1.98;;;;;;;;;;5047491;28;20037;-46
2022/04/01 10:17:06;;;;;;;1.63;1.38;;;;;;;;;;5057441;28;20025;-46
2022/04/01 10:19:34;;;;;;;3.58;1.58;;;;;;;;;;5035729;28;20077;-45
2022/04/01 10:22:01;;;;;;;3.25;2.10;;;;;;;;;;5045154;28;20033;-49
2022/04/01 10:24:46;;;;;;;2.58;1.60;;;;;;;;;;5067502;28;20493;-48
2022/04/01 10:27:15;;;;;;;2.40;1.20;;;;;;;;;;5050030;28;20396;-48
2022/04/01 10:29:45;;;;;;;1.63;1.23;;;;;;;;;;5031923;28;20029;-46
2022/04/01 10:32:21;;;;;;;2.15;1.30;;;;;;;;;;5040605;28;20412;-48
2022/04/01 10:34:48;;;;;;;2.53;1.40;;;;;;;;;;5029655;28;20108;-46
2022/04/01 10:37:15;;;;;;;3.65;1.17;;;;;;;;;;5032781;28;20061;-46
2022/04/01 10:39:48;;;;;;;2.75;1.45;;;;;;;;;;5043027;28;20091;-46
2022/04/01 10:42:16;;;;;;;1.57;1.10;;;;;;;;;;5037601;28;20102;-45
2022/04/01 10:44:53;;;;;;;1.15;1.05;;;;;;;;;;5047294;28;20044;-48
2022/04/01 10:47:21;;;;;;;2.78;1.55;;;;;;;;;;5026253;28;20037;-45
2022/04/01 10:52:34;;;;;;;2.83;1.80;;;;;;;;;;5039170;28;20087;-45
2022/04/01 10:55:05;;;;;;;2.42;1.23;;;;;;;;;;5031338;28;20485;-47
2022/04/01 10:57:35;;;;;;;3.28;1.70;;;;;;;;;;5027220;28;20033;-45
2022/04/01 11:00:04;;;;;;;3.63;1.52;;;;;;;;;;5028629;28;20053;-47
2022/04/01 11:02:30;;;;;;;1.95;1.20;;;;;;;;;;5026999;28;20619;-49
2022/04/01 11:05:00;;;;;;;3.85;1.50;;;;;;;;;;5027389;28;20030;-47
2022/04/01 11:07:26;;;;;;;3.35;1.48;;;;;;;;;;5041680;28;20033;-48
2022/04/01 11:10:00;;;;;;;2.75;1.15;;;;;;;;;;5045018;28;20061;-50
2022/04/01 11:12:32;;;;;;;3.83;1.80;;;;;;;;;;5040774;28;20036;-45
2022/04/01 11:17:29;;;;;;;3.30;1.77;;;;;;;;;;5045319;28;20089;-49
2022/04/01 11:20:07;;;;;;;6.30;2.20;;;;;;;;;;5032093;28;20051;-50
2022/04/01 11:22:39;;;;;;;4.95;1.85;;;;;;;;;;5041466;28;20086;-47
2022/04/01 11:25:06;;;;;;;6.03;2.17;;;;;;;;;;5033880;28;20028;-46
2022/04/01 11:27:35;;;;;;;3.67;1.52;;;;;;;;;;5042318;28;20033;-48
2022/04/01 11:30:06;;;;;;;4.15;1.45;;;;;;;;;;5039035;28;20029;-49
2022/04/01 11:32:35;;;;;;;1.83;1.13;;;;;;;;;;5028731;28;20036;-47
2022/04/01 11:35:02;;;;;;;2.70;1.17;;;;;;;;;;5030431;28;20028;-45
2022/04/01 11:37:29;;;;;;;2.35;1.20;;;;;;;;;;5047789;28;20519;-47
2022/04/01 11:40:14;;;;;;;1.75;1.00;;;;;;;;;;5028648;28;20037;-46
2022/04/01 11:42:56;;;;;;;1.67;1.30;;;;;;;;;;5026877;28;20053;-49
2022/04/01 11:45:23;;;;;;;2.45;1.35;;;;;;;;;;5029541;28;20032;-49
2022/04/01 11:47:49;;;;;;;3.47;1.40;;;;;;;;;;5045313;28;20025;-45
2022/04/01 11:50:17;;;;;;;3.63;1.42;;;;;;;;;;5031881;28;20380;-45
2022/04/01 11:52:44;;;;;;;3.17;1.15;;;;;;;;;;5035972;28;20136;-49
2022/04/01 11:55:14;;;;;;;1.52;1.00;;;;;;;;;;5028183;28;20187;-46
2022/04/01 11:57:41;;;;;;;2.53;1.25;;;;;;;;;;5040140;28;20511;-47
2022/04/01 12:00:11;;;;;;;1.08;0.95;;;;;;;;;;5027002;28;20768;-48
2022/04/01 12:02:38;;;;;;;2.20;1.20;;;;;;;;;;5035317;28;20672;-47
2022/04/01 12:05:04;;;;;;;3.53;1.15;;;;;;;;;;5034085;28;20036;-46
2022/04/01 12:10:23;;;;;;;2.20;1.45;;;;;;;;;;5039669;28;20462;-46
2022/04/01 12:13:00;;;;;;;2.25;1.50;;;;;;;;;;5032275;28;20083;-48
2022/04/01 12:15:30;;;;;;;4.78;1.63;;;;;;;;;;5036885;28;20515;-48
2022/04/01 12:17:57;;;;;;;5.63;1.30;;;;;;;;;;5054877;28;20055;-46
2022/04/01 12:20:23;;;;;;;2.15;1.50;;;;;;;;;;5064737;28;20031;-46
2022/04/01 12:22:52;;;;;;;2.03;1.20;;;;;;;;;;5045477;28;20029;-48
2022/04/01 12:25:19;;;;;;;5.13;2.78;;;;;;;;;;5050272;28;20040;-45
2022/04/01 12:27:55;;;;;;;5.82;2.80;;;;;;;;;;5048273;28;20032;-50
2022/04/01 12:30:33;;;;;;;9.07;4.13;;;;;;;;;;5041471;28;20025;-49
2022/04/01 12:33:01;;;;;;;7.75;3.58;;;;;;;;;;5034314;28;20059;-51
2022/04/01 12:35:27;;;;;;;7.57;3.75;;;;;;;;;;5049987;28;20037;-50
2022/04/01 12:38:09;;;;;;;5.68;2.75;;;;;;;;;;5047290;28;20025;-46
2022/04/01 12:40:56;;;;;;;6.32;3.38;;;;;;;;;;5037575;28;20039;-47
2022/04/01 12:43:31;;;;;;;7.20;2.83;;;;;;;;;;5048979;28;20036;-46
2022/04/01 12:46:21;;;;;;;4.57;2.47;;;;;;;;;;5050590;28;20025;-50
2022/04/01 12:48:51;;;;;;;2.90;1.67;;;;;;;;;;5044761;28;20159;-48
2022/04/01 12:51:21;;;;;;;2.90;1.80;;;;;;;;;;5049652;28;20035;-48
2022/04/01 12:53:53;;;;;;;2.53;1.40;;;;;;;;;;5039380;28;20026;-47
2022/04/01 12:56:21;;;;;;;2.00;1.50;;;;;;;;;;5043951;28;20025;-50
2022/04/01 12:58:51;;;;;;;3.58;1.33;;;;;;;;;;5046553;28;20025;-49
2022/04/01 13:01:21;;;;;;;3.00;1.70;;;;;;;;;;5058753;28;20369;-50
2022/04/01 13:03:48;;;;;;;2.50;1.55;;;;;;;;;;5041937;28;21859;-47
2022/04/01 13:06:16;;;;;;;4.07;2.28;;;;;;;;;;5034419;28;20025;-49
2022/04/01 13:08:42;;;;;;;2.63;1.67;;;;;;;;;;5034407;28;20091;-47
2022/04/01 13:11:15;;;;;;;6.43;3.25;;;;;;;;;;5034727;28;20493;-50
2022/04/01 13:13:41;;;;;;;7.00;3.13;;;;;;;;;;5042810;28;20037;-49
2022/04/01 13:16:09;;;;;;;7.78;4.18;;;;;;;;;;5033638;28;20041;-46
2022/04/01 13:18:35;;;;;;;12.20;5.28;;;;;;;;;;5033210;28;20495;-49
2022/04/01 13:21:02;;;;;;;8.32;4.30;;;;;;;;;;5049075;28;20052;-50
2022/04/01 13:23:30;;;;;;;8.30;3.65;;;;;;;;;;5039974;28;20029;-47
2022/04/01 13:25:57;;;;;;;6.63;3.00;;;;;;;;;;5029064;28;20041;-47
2022/04/01 13:28:23;;;;;;;8.43;3.90;;;;;;;;;;5029424;28;20034;-48
2022/04/01 13:30:49;;;;;;;8.63;3.45;;;;;;;;;;5029865;28;20039;-49
2022/04/01 13:33:15;;;;;;;6.43;2.42;;;;;;;;;;5056326;28;20148;-48
2022/04/01 13:35:42;;;;;;;7.40;2.78;;;;;;;;;;5049954;28;20025;-46
2022/04/01 13:38:08;;;;;;;3.58;2.00;;;;;;;;;;5039873;28;20021;-48
2022/04/01 13:40:34;;;;;;;5.05;2.75;;;;;;;;;;5039769;28;20033;-47
2022/04/01 13:43:01;;;;;;;5.50;2.58;;;;;;;;;;5042554;28;20061;-49
2022/04/01 13:45:29;;;;;;;5.35;2.47;;;;;;;;;;5039673;28;20083;-50
2022/04/01 13:47:56;;;;;;;4.18;2.30;;;;;;;;;;5049635;28;20555;-48
2022/04/01 13:50:22;;;;;;;4.97;2.40;;;;;;;;;;5039045;28;20036;-46
2022/04/01 13:52:49;;;;;;;3.22;1.60;;;;;;;;;;5063446;28;20025;-48
2022/04/01 13:55:15;;;;;;;1.65;1.33;;;;;;;;;;5056727;28;20037;-50
2022/04/01 13:57:43;;;;;;;1.92;1.45;;;;;;;;;;5040074;28;20470;-49
2022/04/01 14:00:10;;;;;;;2.35;1.40;;;;;;;;;;5033741;28;20087;-47
2022/04/01 14:02:36;;;;;;;3.65;1.58;;;;;;;;;;5046769;28;20035;-49
2022/04/01 14:05:02;;;;;;;2.72;1.35;;;;;;;;;;5037851;28;20037;-46
2022/04/01 14:07:28;;;;;;;1.63;1.10;;;;;;;;;;5030855;28;20041;-47
2022/04/01 14:09:55;;;;;;;2.55;1.10;;;;;;;;;;5034337;28;20029;-47
2022/04/01 14:12:21;;;;;;;3.60;1.40;;;;;;;;;;5038226;28;20033;-47
2022/04/01 14:14:47;;;;;;;1.38;1.15;;;;;;;;;;5030897;28;20041;-48
2022/04/01 14:17:13;;;;;;;2.53;1.40;;;;;;;;;;5052021;28;20082;-47
2022/04/01 14:19:39;;;;;;;1.63;1.20;;;;;;;;;;5042597;28;20049;-49
2022/04/01 14:22:06;;;;;;;1.75;1.10;;;;;;;;;;5033340;28;20389;-46
2022/04/01 14:24:32;;;;;;;3.75;1.13;;;;;;;;;;5047602;28;20039;-48
2022/04/01 14:26:58;;;;;;;1.25;0.82;;;;;;;;;;5038908;28;20033;-49
2022/04/01 14:32:09;;;;;;;1.60;0.90;;;;;;;;;;5027494;28;20049;-48
2022/04/01 14:34:40;;;;;;;2.33;1.50;;;;;;;;;;5027267;28;20582;-49
2022/04/01 14:37:07;;;;;;;1.40;0.90;;;;;;;;;;5027338;28;20116;-49
2022/04/01 14:39:33;;;;;;;3.25;1.30;;;;;;;;;;5029590;28;20061;-51
2022/04/01 14:42:00;;;;;;;2.35;1.08;;;;;;;;;;5027538;28;20061;-49
2022/04/01 14:44:26;;;;;;;3.05;1.20;;;;;;;;;;5038329;28;20120;-49
2022/04/01 14:46:53;;;;;;;2.95;1.17;;;;;;;;;;5041553;28;20397;-48
2022/04/01 14:49:20;;;;;;;1.45;0.80;;;;;;;;;;5043190;28;20140;-52
2022/04/01 14:51:47;;;;;;;1.77;1.30;;;;;;;;;;5038673;28;20036;-52
2022/04/01 14:54:17;;;;;;;1.85;1.00;;;;;;;;;;5043578;28;20032;-52
2022/04/01 14:56:43;;;;;;;2.85;1.70;;;;;;;;;;5040582;28;20033;-50
2022/04/01 14:59:09;;;;;;;3.58;1.58;;;;;;;;;;5040338;28;20373;-51
2022/04/01 15:01:36;;;;;;;4.57;1.85;;;;;;;;;;5034451;28;20785;-50
2022/04/01 15:04:02;;;;;;;3.03;1.98;;;;;;;;;;5027495;28;20029;-48
2022/04/01 15:06:29;;;;;;;3.05;1.70;;;;;;;;;;5029552;28;20710;-50
2022/04/01 15:08:55;;;;;;;2.35;1.30;;;;;;;;;;5034617;28;20021;-48